createdAt,value
2019-01-24T00:00:27.724Z,94.33
2019-01-24T00:02:56.632Z,66.37
2019-01-24T00:05:25.238Z,60.70
2019-01-24T00:07:53.967Z,63.60
2019-01-24T00:10:23.955Z,92.20
2019-01-24T00:12:53.646Z,80.00
2019-01-24T00:15:22.202Z,62.13
2019-01-24T00:17:50.777Z,65.90
2019-01-24T00:20:19.385Z,68.07
2019-01-24T00:22:47.965Z,67.47
2019-01-24T00:25:16.471Z,55.43
2019-01-24T00:27:44.933Z,53.27
2019-01-24T00:30:17.422Z,56.13
2019-01-24T00:32:46.079Z,52.60
2019-01-24T00:35:14.683Z,55.17
2019-01-24T00:37:43.342Z,48.03
2019-01-24T00:40:17.049Z,58.63
2019-01-24T00:42:45.761Z,47.23
2019-01-24T00:45:14.551Z,50.33
2019-01-24T00:47:43.385Z,48.07
2019-01-24T00:50:13.882Z,45.97
2019-01-24T00:52:42.384Z,52.73
2019-01-24T00:55:15.181Z,45.00
2019-01-24T00:57:43.655Z,52.47
2019-01-24T01:00:21.123Z,44.67
2019-01-24T01:02:49.905Z,53.97
2019-01-24T01:05:18.498Z,48.40
2019-01-24T01:07:47.220Z,45.83
2019-01-24T01:10:15.748Z,51.73
2019-01-24T01:12:44.230Z,52.97
2019-01-24T01:15:17.403Z,54.07
2019-01-24T01:17:45.916Z,51.67
2019-01-24T01:20:19.527Z,60.77
2019-01-24T01:22:48.059Z,55.13
2019-01-24T01:25:16.682Z,57.23
2019-01-24T01:27:45.358Z,53.27
2019-01-24T01:30:19.734Z,54.47
2019-01-24T01:32:48.568Z,53.40
2019-01-24T01:35:17.382Z,55.23
2019-01-24T01:37:46.275Z,55.20
2019-01-24T01:40:17.256Z,56.80
2019-01-24T01:42:46.045Z,52.20
2019-01-24T01:45:17.128Z,53.10
2019-01-24T01:47:45.696Z,47.23
2019-01-24T01:50:16.904Z,48.87
2019-01-24T01:52:45.593Z,122.30
2019-01-24T01:55:14.213Z,126.30
2019-01-24T01:57:42.863Z,98.03
2019-01-24T02:00:14.802Z,76.33
2019-01-24T02:02:43.374Z,61.17
2019-01-24T02:05:12.476Z,58.37
2019-01-24T02:07:41.038Z,54.07
2019-01-24T02:10:15.713Z,49.37
2019-01-24T02:12:44.295Z,45.03
2019-01-24T02:15:14.353Z,48.73
2019-01-24T02:17:42.786Z,50.20
2019-01-24T02:20:14.586Z,59.30
2019-01-24T02:22:43.091Z,61.07
2019-01-24T02:25:11.650Z,56.03
2019-01-24T02:27:40.337Z,82.27
2019-01-24T02:30:15.190Z,115.97
2019-01-24T02:32:43.727Z,81.00
2019-01-24T02:35:12.285Z,65.53
2019-01-24T02:37:40.850Z,62.60
2019-01-24T02:40:10.199Z,54.37
2019-01-24T02:42:38.685Z,55.17
2019-01-24T02:45:10.557Z,55.97
2019-01-24T02:47:39.113Z,52.87
2019-01-24T02:50:11.147Z,52.97
2019-01-24T02:52:39.815Z,49.67
2019-01-24T02:55:11.102Z,54.27
2019-01-24T02:57:39.710Z,54.23
2019-01-24T03:00:13.849Z,64.67
2019-01-24T03:02:42.510Z,60.37
2019-01-24T03:05:13.585Z,60.23
2019-01-24T03:07:42.078Z,53.23
2019-01-24T03:10:12.913Z,56.33
2019-01-24T03:12:41.467Z,41.57
2019-01-24T03:15:18.861Z,46.63
2019-01-24T03:17:47.306Z,51.90
2019-01-24T03:20:17.769Z,53.50
2019-01-24T03:22:46.471Z,54.50
2019-01-24T03:25:16.524Z,52.97
2019-01-24T03:27:45.121Z,49.70
2019-01-24T03:30:18.323Z,47.43
2019-01-24T03:32:46.915Z,56.37
2019-01-24T03:35:21.555Z,46.23
2019-01-24T03:37:50.090Z,53.50
2019-01-24T03:40:18.654Z,53.40
2019-01-24T03:42:47.202Z,51.63
2019-01-24T03:45:19.563Z,42.67
2019-01-24T03:47:48.174Z,57.73
2019-01-24T03:50:19.117Z,57.40
2019-01-24T03:52:47.838Z,52.70
2019-01-24T03:55:18.060Z,53.47
2019-01-24T03:57:46.592Z,36.73
2019-01-24T04:00:22.408Z,49.63
2019-01-24T04:02:51.007Z,47.27
2019-01-24T04:05:19.782Z,49.17
2019-01-24T04:07:48.412Z,56.67
2019-01-24T04:10:18.575Z,37.43
2019-01-24T04:12:47.248Z,40.63
2019-01-24T04:15:20.601Z,43.27
2019-01-24T04:17:49.181Z,38.47
2019-01-24T04:20:17.667Z,43.47
2019-01-24T04:22:46.363Z,50.80
2019-01-24T04:25:14.763Z,54.93
2019-01-24T04:27:43.322Z,51.10
2019-01-24T04:30:17.712Z,54.80
2019-01-24T04:32:46.359Z,54.90
2019-01-24T04:35:19.653Z,51.63
2019-01-24T04:37:45.227Z,43.97
2019-01-24T04:40:18.510Z,60.17
2019-01-24T04:42:47.073Z,51.43
2019-01-24T04:45:16.953Z,45.93
2019-01-24T04:47:45.517Z,59.20
2019-01-24T04:50:15.932Z,67.87
2019-01-24T04:52:44.491Z,70.63
2019-01-24T04:55:16.232Z,79.87
2019-01-24T04:57:44.699Z,68.47
2019-01-24T05:00:25.152Z,91.80
2019-01-24T05:02:53.707Z,72.63
2019-01-24T05:05:27.663Z,98.17
2019-01-24T05:07:52.344Z,123.53
2019-01-24T05:10:20.940Z,90.30
2019-01-24T05:12:49.504Z,69.90
2019-01-24T05:15:18.013Z,77.00
2019-01-24T05:17:46.485Z,66.13
2019-01-24T05:20:15.166Z,74.70
2019-01-24T05:22:43.842Z,98.37
2019-01-24T05:25:14.554Z,117.57
2019-01-24T05:27:43.072Z,157.43
2019-01-24T05:30:20.589Z,129.03
2019-01-24T05:32:49.065Z,122.50
2019-01-24T05:35:17.695Z,103.20
2019-01-24T05:37:46.571Z,106.13
2019-01-24T05:40:15.225Z,140.73
2019-01-24T05:42:43.849Z,137.27
2019-01-24T05:45:13.774Z,168.40
2019-01-24T05:47:42.239Z,99.80
2019-01-24T05:50:11.892Z,105.73
2019-01-24T05:52:40.585Z,107.03
2019-01-24T05:55:11.546Z,111.93
2019-01-24T05:57:40.079Z,116.63
2019-01-24T06:00:11.883Z,82.40
2019-01-24T06:02:40.503Z,106.10
2019-01-24T06:05:10.722Z,182.33
2019-01-24T06:07:39.502Z,99.33
2019-01-24T06:10:13.630Z,204.93
2019-01-24T06:12:42.292Z,142.00
2019-01-24T06:15:13.948Z,207.27
2019-01-24T06:17:42.433Z,232.20
2019-01-24T06:20:11.136Z,182.83
2019-01-24T06:22:39.895Z,209.53
2019-01-24T06:25:10.516Z,97.37
2019-01-24T06:27:39.109Z,148.47
2019-01-24T06:30:22.031Z,152.63
2019-01-24T06:32:50.627Z,109.13
2019-01-24T06:35:19.096Z,98.17
2019-01-24T06:37:47.933Z,126.17
2019-01-24T06:40:16.715Z,124.73
2019-01-24T06:42:45.275Z,129.07
2019-01-24T06:45:23.656Z,91.37
2019-01-24T06:47:52.160Z,86.03
2019-01-24T06:50:20.705Z,92.17
2019-01-24T06:52:49.248Z,59.13
2019-01-24T06:55:26.482Z,68.33
2019-01-24T06:57:55.169Z,63.17
2019-01-24T07:00:23.846Z,63.27
2019-01-24T07:02:52.409Z,76.53
2019-01-24T07:05:21.146Z,98.77
2019-01-24T07:07:49.793Z,108.10
2019-01-24T07:10:20.966Z,90.47
2019-01-24T07:12:49.691Z,76.53
2019-01-24T07:15:20.078Z,69.87
2019-01-24T07:17:48.594Z,56.80
2019-01-24T07:20:19.114Z,58.23
2019-01-24T07:22:47.682Z,58.03
2019-01-24T07:25:24.764Z,42.23
2019-01-24T07:27:53.448Z,49.83
2019-01-24T07:30:22.003Z,63.20
2019-01-24T07:32:50.816Z,46.63
2019-01-24T07:35:20.310Z,71.53
2019-01-24T07:37:48.886Z,58.77
2019-01-24T07:40:18.909Z,77.57
2019-01-24T07:42:47.634Z,76.83
2019-01-24T07:45:25.224Z,62.53
2019-01-24T07:47:53.934Z,53.83
2019-01-24T07:50:22.789Z,65.20
2019-01-24T07:52:51.419Z,56.60
2019-01-24T07:55:19.942Z,45.97
2019-01-24T07:57:48.405Z,64.27
2019-01-24T08:00:19.761Z,60.03
2019-01-24T08:02:48.369Z,70.43
2019-01-24T08:05:17.243Z,136.63
2019-01-24T08:07:45.973Z,110.93
2019-01-24T08:10:19.338Z,70.57
2019-01-24T08:12:47.982Z,86.17
2019-01-24T08:15:18.527Z,84.53
2019-01-24T08:17:47.223Z,75.10
2019-01-24T08:20:20.791Z,77.10
2019-01-24T08:22:49.692Z,95.13
2019-01-24T08:25:18.211Z,77.53
2019-01-24T08:27:46.925Z,95.47
2019-01-24T08:30:30.048Z,58.20
2019-01-24T08:32:58.633Z,51.37
2019-01-24T08:35:27.319Z,57.57
2019-01-24T08:37:56.096Z,50.20
2019-01-24T08:40:25.282Z,62.83
2019-01-24T08:42:54.500Z,65.63
2019-01-24T08:45:23.170Z,54.77
2019-01-24T08:47:51.815Z,55.17
2019-01-24T08:50:24.903Z,42.60
2019-01-24T08:52:53.566Z,55.67
2019-01-24T08:55:25.259Z,52.47
2019-01-24T08:57:54.072Z,44.80
2019-01-24T09:00:22.578Z,48.83
2019-01-24T09:02:51.892Z,49.37
2019-01-24T09:05:20.681Z,44.70
2019-01-24T09:07:49.466Z,55.57
2019-01-24T09:10:23.884Z,77.10
2019-01-24T09:12:52.503Z,58.97
2019-01-24T09:15:21.115Z,57.50
2019-01-24T09:17:49.699Z,42.67
2019-01-24T09:20:19.758Z,40.23
2019-01-24T09:22:54.986Z,30.40
2019-01-24T09:25:18.700Z,78.23
2019-01-24T09:27:47.602Z,44.67
2019-01-24T09:30:18.915Z,57.93
2019-01-24T09:32:47.641Z,54.73
2019-01-24T09:35:16.515Z,43.70
2019-01-24T09:37:45.096Z,43.13
2019-01-24T09:40:16.585Z,34.63
2019-01-24T09:42:45.243Z,28.00
2019-01-24T09:45:16.436Z,37.37
2019-01-24T09:47:45.004Z,32.93
2019-01-24T09:50:16.443Z,41.47
2019-01-24T09:52:45.419Z,39.27
2019-01-24T09:55:13.972Z,38.17
2019-01-24T09:57:42.609Z,32.93
2019-01-24T10:00:15.638Z,32.27
2019-01-24T10:02:44.274Z,44.90
2019-01-24T10:05:13.597Z,31.50
2019-01-24T10:07:43.967Z,42.90
2019-01-24T10:10:15.316Z,32.77
2019-01-24T10:12:44.172Z,34.03
2019-01-24T10:15:14.661Z,38.63
2019-01-24T10:17:43.238Z,34.97
2019-01-24T10:20:23.487Z,39.30
2019-01-24T10:22:52.009Z,294.90
2019-01-24T10:25:22.881Z,217.77
2019-01-24T10:27:51.755Z,209.17
2019-01-24T10:30:22.227Z,58.87
2019-01-24T10:32:50.975Z,99.47
2019-01-24T10:35:20.090Z,73.77
2019-01-24T10:37:48.908Z,38.30
2019-01-24T10:40:23.147Z,34.30
2019-01-24T10:42:51.806Z,58.60
2019-01-24T10:45:21.588Z,37.20
2019-01-24T10:47:51.701Z,51.20
2019-01-24T10:50:27.767Z,49.70
2019-01-24T10:52:56.368Z,74.73
2019-01-24T10:55:26.650Z,52.77
2019-01-24T10:57:57.122Z,73.80
2019-01-24T11:00:34.312Z,41.70
2019-01-24T11:03:05.414Z,51.10
2019-01-24T11:05:33.937Z,74.07
2019-01-24T11:08:02.542Z,56.87
2019-01-24T11:10:31.272Z,49.77
2019-01-24T11:12:59.921Z,56.87
2019-01-24T11:15:28.429Z,52.37
2019-01-24T11:17:57.124Z,75.53
2019-01-24T11:20:25.637Z,56.43
2019-01-24T11:22:54.207Z,67.00
2019-01-24T11:25:26.854Z,57.73
2019-01-24T11:27:55.437Z,84.80
2019-01-24T11:30:26.614Z,62.57
2019-01-24T11:32:55.219Z,61.50
2019-01-24T11:35:26.706Z,47.23
2019-01-24T11:37:55.222Z,45.10
2019-01-24T11:40:23.726Z,55.53
2019-01-24T11:42:52.266Z,72.80
2019-01-24T11:45:26.694Z,58.73
2019-01-24T11:47:55.331Z,50.27
2019-01-24T11:50:23.899Z,38.43
2019-01-24T11:52:52.477Z,50.03
2019-01-24T11:55:21.737Z,40.40
2019-01-24T11:57:50.390Z,58.27
2019-01-24T12:00:34.931Z,48.43
2019-01-24T12:03:03.593Z,49.43
2019-01-24T12:05:32.033Z,41.37
2019-01-24T12:08:00.678Z,54.10
2019-01-24T12:10:30.336Z,59.57
2019-01-24T12:12:59.180Z,88.67
2019-01-24T12:15:29.574Z,30.33
2019-01-24T12:17:58.152Z,78.10
2019-01-24T12:20:26.763Z,43.13
2019-01-24T12:22:55.501Z,46.57
2019-01-24T12:25:24.087Z,42.73
2019-01-24T12:27:52.680Z,37.67
2019-01-24T12:30:26.905Z,37.93
2019-01-24T12:32:55.815Z,46.73
2019-01-24T12:35:24.375Z,43.13
2019-01-24T12:37:52.889Z,41.00
2019-01-24T12:40:21.695Z,38.37
2019-01-24T12:42:50.254Z,30.70
2019-01-24T12:45:24.502Z,36.20
2019-01-24T12:47:53.484Z,34.20
2019-01-24T12:50:22.653Z,35.07
2019-01-24T12:52:51.543Z,36.73
2019-01-24T12:55:20.169Z,36.80
2019-01-24T12:57:48.662Z,40.67
2019-01-24T13:00:25.990Z,35.40
2019-01-24T13:02:54.562Z,34.33
2019-01-24T13:05:23.135Z,31.20
2019-01-24T13:07:51.749Z,37.03
2019-01-24T13:10:22.904Z,30.27
2019-01-24T13:12:51.405Z,28.53
2019-01-24T13:15:22.288Z,34.47
2019-01-24T13:17:50.892Z,30.80
2019-01-24T13:20:19.631Z,36.10
2019-01-24T13:22:49.196Z,30.63
2019-01-24T13:25:25.731Z,31.80
2019-01-24T13:27:54.614Z,36.50
2019-01-24T13:30:28.157Z,35.90
2019-01-24T13:32:56.751Z,29.07
2019-01-24T13:35:25.597Z,28.93
2019-01-24T13:37:54.220Z,28.27
2019-01-24T13:40:25.331Z,35.03
2019-01-24T13:42:54.204Z,39.27
2019-01-24T13:45:26.062Z,45.43
2019-01-24T13:47:54.463Z,38.80
2019-01-24T13:50:23.027Z,38.83
2019-01-24T13:52:51.711Z,35.97
2019-01-24T13:55:20.998Z,57.17
2019-01-24T13:57:49.892Z,39.83
2019-01-24T14:00:24.440Z,47.90
2019-01-24T14:02:59.377Z,52.23
2019-01-24T14:05:27.936Z,40.87
2019-01-24T14:07:56.529Z,19.07
2019-01-24T14:10:25.056Z,25.70
2019-01-24T14:12:53.554Z,34.70
2019-01-24T14:15:22.089Z,35.67
2019-01-24T14:17:50.765Z,45.30
2019-01-24T14:20:20.952Z,41.93
2019-01-24T14:22:49.506Z,44.67
2019-01-24T14:25:19.634Z,41.97
2019-01-24T14:27:48.463Z,33.97
2019-01-24T14:30:25.114Z,34.63
2019-01-24T14:32:53.821Z,36.07
2019-01-24T14:35:22.626Z,26.07
2019-01-24T14:37:51.397Z,29.20
2019-01-24T14:40:20.745Z,33.27
2019-01-24T14:42:49.332Z,65.00
2019-01-24T14:45:23.913Z,40.27
2019-01-24T14:47:52.425Z,44.60
2019-01-24T14:50:26.500Z,56.50
2019-01-24T14:52:55.190Z,44.57
2019-01-24T14:55:23.852Z,70.00
2019-01-24T14:57:52.917Z,47.80
2019-01-24T15:00:25.127Z,38.10
2019-01-24T15:02:54.136Z,42.30
2019-01-24T15:05:22.927Z,48.27
2019-01-24T15:07:51.568Z,65.53
2019-01-24T15:10:20.661Z,81.73
2019-01-24T15:12:49.228Z,77.37
2019-01-24T15:15:19.809Z,75.27
2019-01-24T15:17:48.657Z,80.73
2019-01-24T15:20:18.745Z,139.47
2019-01-24T15:22:47.546Z,207.93
2019-01-24T15:25:18.583Z,209.70
2019-01-24T15:27:47.261Z,199.53
2019-01-24T15:30:24.759Z,475.57
2019-01-24T15:32:53.344Z,193.70
2019-01-24T15:35:21.775Z,116.10
2019-01-24T15:37:54.425Z,1999.90
2019-01-24T15:40:23.276Z,1999.90
2019-01-24T15:42:52.113Z,95.50
2019-01-24T15:45:20.910Z,1999.90
2019-01-24T15:47:49.770Z,1999.90
2019-01-24T15:50:20.524Z,1999.90
2019-01-24T15:52:49.116Z,1999.90
2019-01-24T15:55:18.115Z,1999.90
2019-01-24T15:57:46.633Z,1426.33
2019-01-24T16:00:23.396Z,896.23
2019-01-24T16:02:52.031Z,125.57
2019-01-24T16:05:20.984Z,123.97
2019-01-24T16:07:49.781Z,171.90
2019-01-24T16:10:20.643Z,473.83
2019-01-24T16:12:49.256Z,365.97
2019-01-24T16:15:32.407Z,157.70
2019-01-24T16:18:00.985Z,371.87
2019-01-24T16:20:30.495Z,228.63
2019-01-24T16:22:59.208Z,69.47
2019-01-24T16:25:31.032Z,109.77
2019-01-24T16:28:01.472Z,99.67
2019-01-24T16:30:35.631Z,121.97
2019-01-24T16:33:06.717Z,118.93
2019-01-24T16:35:35.588Z,68.23
2019-01-24T16:38:09.299Z,90.57
2019-01-24T16:40:34.847Z,86.93
2019-01-24T16:43:03.542Z,74.50
2019-01-24T16:45:32.303Z,135.20
2019-01-24T16:48:00.926Z,101.50
2019-01-24T16:50:29.477Z,75.93
2019-01-24T16:52:58.122Z,94.30
2019-01-24T16:55:26.928Z,85.53
2019-01-24T16:57:55.584Z,71.67
2019-01-24T17:00:27.655Z,80.70
2019-01-24T17:02:56.572Z,75.20
2019-01-24T17:05:25.559Z,87.70
2019-01-24T17:08:16.717Z,77.53
2019-01-24T17:10:44.107Z,192.50
2019-01-24T17:13:12.901Z,162.20
2019-01-24T17:15:42.257Z,66.83
2019-01-24T17:18:11.067Z,60.83
2019-01-24T17:20:39.549Z,61.67
2019-01-24T17:23:08.082Z,52.13
2019-01-24T17:25:36.761Z,57.03
2019-01-24T17:28:05.655Z,51.80
2019-01-24T17:30:35.132Z,120.67
2019-01-24T17:33:03.938Z,81.73
2019-01-24T17:35:32.489Z,108.30
2019-01-24T17:38:01.115Z,90.73
2019-01-24T17:40:31.984Z,109.60
2019-01-24T17:43:01.041Z,60.80
2019-01-24T17:45:30.066Z,77.97
2019-01-24T17:47:58.668Z,89.47
2019-01-24T17:50:27.783Z,120.07
2019-01-24T17:52:58.324Z,64.80
2019-01-24T17:55:36.026Z,65.17
2019-01-24T17:58:06.166Z,77.03
2019-01-24T18:00:36.809Z,81.17
2019-01-24T18:03:05.660Z,59.37
2019-01-24T18:05:34.656Z,80.60
2019-01-24T18:08:03.257Z,98.20
2019-01-24T18:10:33.105Z,67.90
2019-01-24T18:13:01.935Z,51.77
2019-01-24T18:15:35.315Z,43.83
2019-01-24T18:18:05.866Z,44.70
2019-01-24T18:20:36.667Z,42.57
2019-01-24T18:23:07.543Z,45.13
2019-01-24T18:25:36.181Z,62.70
2019-01-24T18:28:06.882Z,48.07
2019-01-24T18:30:35.577Z,151.67
2019-01-24T18:33:04.291Z,58.60
2019-01-24T18:35:32.802Z,47.27
2019-01-24T18:38:01.429Z,40.30
2019-01-24T18:40:31.235Z,42.97
2019-01-24T18:43:00.172Z,40.60
2019-01-24T18:45:31.799Z,45.70
2019-01-24T18:48:00.346Z,39.63
2019-01-24T18:50:28.958Z,44.00
2019-01-24T18:52:57.529Z,41.80
2019-01-24T18:55:26.231Z,50.33
2019-01-24T18:57:55.726Z,52.67
2019-01-24T19:00:27.069Z,53.87
2019-01-24T19:02:55.755Z,58.90
2019-01-24T19:05:24.434Z,60.20
2019-01-24T19:07:52.993Z,59.47
2019-01-24T19:10:21.696Z,73.07
2019-01-24T19:12:50.147Z,70.93
2019-01-24T19:15:20.577Z,68.67
2019-01-24T19:17:49.692Z,77.63
2019-01-24T19:20:18.550Z,83.47
2019-01-24T19:22:47.198Z,91.23
2019-01-24T19:25:19.108Z,160.53
2019-01-24T19:27:47.730Z,155.37
2019-01-24T19:30:22.086Z,83.27
2019-01-24T19:32:51.283Z,84.93
2019-01-24T19:35:19.844Z,86.73
2019-01-24T19:37:48.395Z,89.47
2019-01-24T19:40:24.851Z,95.40
2019-01-24T19:42:53.419Z,79.63
2019-01-24T19:45:23.919Z,79.33
2019-01-24T19:47:52.580Z,100.60
2019-01-24T19:50:22.933Z,87.57
2019-01-24T19:52:51.939Z,75.60
2019-01-24T19:55:20.601Z,150.10
2019-01-24T19:57:49.363Z,92.93
2019-01-24T20:00:29.465Z,91.33
2019-01-24T20:02:58.099Z,118.10
2019-01-24T20:05:27.130Z,69.23
2019-01-24T20:07:55.989Z,98.03
2019-01-24T20:10:26.501Z,70.60
2019-01-24T20:12:55.142Z,76.07
2019-01-24T20:15:28.540Z,115.87
2019-01-24T20:17:57.351Z,70.10
2019-01-24T20:20:26.370Z,105.73
2019-01-24T20:22:56.106Z,88.80
2019-01-24T20:25:29.544Z,125.57
2019-01-24T20:27:58.012Z,66.60
2019-01-24T20:30:31.433Z,59.10
2019-01-24T20:33:00.982Z,59.23
2019-01-24T20:35:35.694Z,62.73
2019-01-24T20:38:04.779Z,55.77
2019-01-24T20:40:33.884Z,52.27
2019-01-24T20:43:02.512Z,55.30
2019-01-24T20:45:31.242Z,44.93
2019-01-24T20:47:59.785Z,49.30
2019-01-24T20:50:28.643Z,56.00
2019-01-24T20:52:57.269Z,46.43
2019-01-24T20:55:25.916Z,44.90
2019-01-24T20:57:54.601Z,42.47
2019-01-24T21:00:24.471Z,40.33
2019-01-24T21:02:53.944Z,60.00
2019-01-24T21:05:23.799Z,56.43
2019-01-24T21:07:52.553Z,49.50
2019-01-24T21:10:23.408Z,88.03
2019-01-24T21:12:53.551Z,58.17
2019-01-24T21:15:22.677Z,76.10
2019-01-24T21:17:51.481Z,113.93
2019-01-24T21:20:25.075Z,100.97
2019-01-24T21:22:53.987Z,78.03
2019-01-24T21:25:23.851Z,98.40
2019-01-24T21:27:52.933Z,107.10
2019-01-24T21:30:35.530Z,62.13
2019-01-24T21:33:04.908Z,67.90
2019-01-24T21:35:34.306Z,67.63
2019-01-24T21:38:03.042Z,75.17
2019-01-24T21:40:33.107Z,62.93
2019-01-24T21:43:01.849Z,62.73
2019-01-24T21:45:35.561Z,54.17
2019-01-24T21:48:05.882Z,62.87
2019-01-24T21:50:34.496Z,63.30
2019-01-24T21:53:03.881Z,54.53
2019-01-24T21:55:32.794Z,53.77
2019-01-24T21:58:01.224Z,61.27
2019-01-24T22:00:29.973Z,48.87
2019-01-24T22:02:58.526Z,57.67
2019-01-24T22:05:27.249Z,76.33
2019-01-24T22:07:55.971Z,67.07
2019-01-24T22:10:29.641Z,65.20
2019-01-24T22:12:58.313Z,57.70
2019-01-24T22:15:29.207Z,64.07
2019-01-24T22:17:58.305Z,81.07
2019-01-24T22:20:26.882Z,87.10
2019-01-24T22:22:55.497Z,58.27
2019-01-24T22:25:26.368Z,47.27
2019-01-24T22:27:55.155Z,56.43
2019-01-24T22:30:30.685Z,58.63
2019-01-24T22:32:59.147Z,57.33
2019-01-24T22:35:27.812Z,55.03
2019-01-24T22:37:56.270Z,50.70
2019-01-24T22:40:26.011Z,56.43
2019-01-24T22:42:54.678Z,58.60
2019-01-24T22:45:24.895Z,48.70
2019-01-24T22:47:53.605Z,48.57
2019-01-24T22:50:22.038Z,47.10
2019-01-24T22:52:50.790Z,53.47
2019-01-24T22:55:19.356Z,52.37
2019-01-24T22:57:47.969Z,48.83
2019-01-24T23:00:36.231Z,50.53
2019-01-24T23:03:05.297Z,48.70
2019-01-24T23:05:33.923Z,48.17
2019-01-24T23:08:02.492Z,49.90
2019-01-24T23:10:31.141Z,48.60
2019-01-24T23:13:00.171Z,50.33
2019-01-24T23:15:28.951Z,52.67
2019-01-24T23:17:57.434Z,46.23
2019-01-24T23:20:26.116Z,49.67
2019-01-24T23:22:54.793Z,46.87
2019-01-24T23:25:23.384Z,47.60
2019-01-24T23:27:51.950Z,53.53
2019-01-24T23:30:20.652Z,47.03
2019-01-24T23:32:49.200Z,43.10
2019-01-24T23:35:17.701Z,48.63
2019-01-24T23:37:52.346Z,50.03
2019-01-24T23:40:17.502Z,52.80
2019-01-24T23:42:46.096Z,47.13
2019-01-24T23:45:14.601Z,60.70
2019-01-24T23:47:43.275Z,55.87
2019-01-24T23:50:11.922Z,54.03
2019-01-24T23:52:40.505Z,69.77
2019-01-24T23:55:09.157Z,58.17
2019-01-24T23:57:37.857Z,59.97
